Bo Brusco — WDH6880 — position and weather

sailwx.info

Track history (hours):
 
Tides and Currents Weather Stations Pressure Air Temp Water Temp Dewpoint Dewpoint Depression Visibility Wind Speed Wind Dir Waves Ship Positions

Bo Brusco

Owner: Brusco Tug & Barge, Inc., Longview, WA. More information available from US FCC via Universal Licensing System and Coast Guard Vessel Documentation Center.

Last reported at 2018-Feb-20 19:30 UTC. Time now 2018-Feb-20 19:42 UTC.
Position N 47°38' W 122°23'.

Length 24 m; draft 5 m.

Type: Towing. MMSI: 367642530.

Date/timePositionNaut miles runAvg speedWind from/ knotsBaromVisibWave heightAir tempDewpointWater temp
2018-Feb-20 19:30N 47°38' W 122°23'0 0.0
2018-Feb-20 18:59N 47°38' W 122°23'0 0.0
2018-Feb-20 18:29N 47°38' W 122°23'0 0.0
2018-Feb-20 18:00N 47°38' W 122°23'0 0.0
2018-Feb-20 17:30N 47°38' W 122°23'0 0.0
2018-Feb-20 17:00N 47°38' W 122°23'0 0.0
2018-Feb-20 16:30N 47°38' W 122°23'0 0.0
2018-Feb-20 16:00N 47°38' W 122°23'0 0.0
2018-Feb-20 15:30N 47°38' W 122°23'0 0.0
2018-Feb-20 15:00N 47°38' W 122°23'0 0.0
2018-Feb-20 14:30N 47°38' W 122°23'0 0.0
2018-Feb-20 14:00N 47°38' W 122°23'0 0.0
2018-Feb-20 13:30N 47°38' W 122°23'0 0.0
2018-Feb-20 13:00N 47°38' W 122°23'0 0.0
2018-Feb-20 12:30N 47°38' W 122°23'0 0.0
2018-Feb-20 12:00N 47°38' W 122°23'0 0.0
2018-Feb-20 11:30N 47°38' W 122°23'0 0.0
2018-Feb-20 11:00N 47°38' W 122°23'0 0.0
2018-Feb-20 10:30N 47°38' W 122°23'0 0.0
2018-Feb-20 10:00N 47°38' W 122°23'0 0.0
2018-Feb-20 09:30N 47°38' W 122°23'0 0.0
2018-Feb-20 09:00N 47°38' W 122°23'0 0.0
2018-Feb-20 08:30N 47°38' W 122°23'0 0.0
2018-Feb-20 08:00N 47°38' W 122°23'0 0.0
2018-Feb-20 07:30N 47°38' W 122°23'0 0.0
2018-Feb-20 07:00N 47°38' W 122°23'0 0.0
2018-Feb-20 06:30N 47°38' W 122°23'0 0.0
2018-Feb-20 06:00N 47°38' W 122°23'0 0.0
2018-Feb-20 05:30N 47°38' W 122°23'0 0.0
2018-Feb-20 04:59N 47°38' W 122°23'0 0.0
2018-Feb-20 04:30N 47°38' W 122°23'0 0.0
2018-Feb-20 04:00N 47°38' W 122°23'0 0.0
2018-Feb-20 03:30N 47°38' W 122°23'0 0.0
2018-Feb-20 03:00N 47°38' W 122°23'0 0.0
2018-Feb-20 02:30N 47°38' W 122°23'0 0.0
2018-Feb-20 02:00N 47°38' W 122°23'0 0.0
2018-Feb-20 01:30N 47°38' W 122°23'0 0.0
2018-Feb-20 01:00N 47°38' W 122°23'0 0.0
2018-Feb-20 00:31N 47°38' W 122°23'0 0.0
2018-Feb-20 00:00N 47°38' W 122°23'0 0.0
2018-Feb-19 23:30N 47°38' W 122°23'0 0.0
2018-Feb-19 23:00N 47°38' W 122°23'0 0.0
2018-Feb-19 22:30N 47°38' W 122°23'0 0.0
2018-Feb-19 22:00N 47°38' W 122°23'0 0.0
2018-Feb-19 21:30N 47°38' W 122°23'0 0.0
2018-Feb-19 21:00N 47°38' W 122°23'0 0.0
2018-Feb-19 20:30N 47°38' W 122°23'0 0.0
2018-Feb-19 20:00N 47°38' W 122°23'0 0.0
2018-Feb-19 19:30N 47°38' W 122°23'0 0.0
2018-Feb-19 19:00N 47°38' W 122°23'0 0.0
2018-Feb-19 18:30N 47°38' W 122°23'0 0.0
2018-Feb-19 18:00N 47°38' W 122°23'0 0.0
2018-Feb-19 17:30N 47°38' W 122°23'0 0.0
2018-Feb-19 17:00N 47°38' W 122°23'0 0.0
2018-Feb-19 16:30N 47°38' W 122°23'0 0.0
2018-Feb-19 16:00N 47°38' W 122°23'0 0.0
2018-Feb-19 15:30N 47°38' W 122°23'0 0.0
2018-Feb-19 15:00N 47°38' W 122°23'0 0.5
2018-Feb-19 14:30N 47°38' W 122°23'3 5.3
2018-Feb-19 13:56N 47°35' W 122°21'0 0.1
2018-Feb-19 13:24N 47°35' W 122°21'1 1.7
2018-Feb-19 13:00N 47°36' W 122°21'1 2.1
2018-Feb-19 12:30N 47°36' W 122°22'1 2.7
2018-Feb-19 12:00N 47°38' W 122°23'0 0.7
2018-Feb-19 11:30N 47°38' W 122°23'0 0.0
2018-Feb-19 11:00N 47°38' W 122°23'0 0.0
2018-Feb-19 10:30N 47°38' W 122°23'3 5.4
2018-Feb-19 10:00N 47°36' W 122°21'0 0.2
2018-Feb-19 09:29N 47°36' W 122°21'3 5.8
2018-Feb-19 09:00N 47°35' W 122°25'612.1
2018-Feb-19 08:30N 47°30' W 122°29'713.2
2018-Feb-19 07:59N 47°23' W 122°32'511.2
2018-Feb-19 07:30N 47°18' W 122°29'3 1.6
2018-Feb-19 05:35N 47°17' W 122°25'0 2.3
2018-Feb-19 05:24N 47°17' W 122°26'1 1.4
2018-Feb-19 05:00N 47°17' W 122°27'1 1.5
2018-Feb-19 04:29N 47°18' W 122°26'3 1.0
2018-Feb-19 01:24N 47°16' W 122°23'3 8.2
2018-Feb-19 01:00N 47°18' W 122°27'4 9.1
2018-Feb-19 00:30N 47°22' W 122°24'5 9.8
2018-Feb-19 00:00N 47°27' W 122°23'611.4
2018-Feb-18 23:30N 47°32' W 122°25'510.5
2018-Feb-18 23:00N 47°37' W 122°23'1 1.1
2018-Feb-18 22:30N 47°38' W 122°23'1 1.3
2018-Feb-18 22:00N 47°37' W 122°22'0 0.0
2018-Feb-18 21:31N 47°37' W 122°22'0 0.8
2018-Feb-18 21:00N 47°37' W 122°22'0 0.8
2018-Feb-18 20:29N 47°37' W 122°22'1 1.4
2018-Feb-18 20:00N 47°38' W 122°23'3 5.5
2018-Feb-18 19:30N 47°35' W 122°21'0 0.0
2018-Feb-18 19:00N 47°35' W 122°21'0 0.0
2018-Feb-18 18:30N 47°35' W 122°21'0 0.0
2018-Feb-18 18:00N 47°35' W 122°21'0 0.0
2018-Feb-18 17:28N 47°35' W 122°21'3 5.6
2018-Feb-18 17:00N 47°38' W 122°23'0 0.5
2018-Feb-18 16:29N 47°38' W 122°23'0 0.0
2018-Feb-18 16:00N 47°38' W 122°23'0 0.0
2018-Feb-18 15:30N 47°38' W 122°23'0 0.0
2018-Feb-18 15:00N 47°38' W 122°23'0 0.0
2018-Feb-18 14:30N 47°38' W 122°23'0 0.0
2018-Feb-18 14:00N 47°38' W 122°23'0 0.0
2018-Feb-18 13:30N 47°38' W 122°23'0 0.0
2018-Feb-18 13:00N 47°38' W 122°23'0 0.0
2018-Feb-18 12:30N 47°38' W 122°23'0 0.0
2018-Feb-18 12:00N 47°38' W 122°23'0 0.0
2018-Feb-18 11:30N 47°38' W 122°23'0 0.0
2018-Feb-18 11:00N 47°38' W 122°23'0 0.0
2018-Feb-18 10:30N 47°38' W 122°23'0 0.0
2018-Feb-18 10:00N 47°38' W 122°23'0 0.0
2018-Feb-18 09:30N 47°38' W 122°23'0 0.0
2018-Feb-18 09:00N 47°38' W 122°23'0 0.0
2018-Feb-18 08:30N 47°38' W 122°23'0 0.0
2018-Feb-18 08:00N 47°38' W 122°23'0 0.0
2018-Feb-18 07:30N 47°38' W 122°23'0 0.0
2018-Feb-18 07:00N 47°38' W 122°23'0 0.0
2018-Feb-18 06:30N 47°38' W 122°23'0 0.0
2018-Feb-18 06:00N 47°38' W 122°23'0 0.0
2018-Feb-18 05:30N 47°38' W 122°23'0 0.0
2018-Feb-18 05:00N 47°38' W 122°23'0 0.0
2018-Feb-18 04:30N 47°38' W 122°23'0 0.0
2018-Feb-18 04:00N 47°38' W 122°23'0 0.0
2018-Feb-18 03:30N 47°38' W 122°23'0 0.0
2018-Feb-18 03:00N 47°38' W 122°23'0 0.0
2018-Feb-18 02:29N 47°38' W 122°23'0 0.0
2018-Feb-18 02:00N 47°38' W 122°23'2 3.2
2018-Feb-18 01:30N 47°36' W 122°22'1 3.0
2018-Feb-18 01:00N 47°35' W 122°21'0 0.4
2018-Feb-18 00:30N 47°35' W 122°21'1 1.7
2018-Feb-18 00:00N 47°36' W 122°21'1 1.1
2018-Feb-17 23:30N 47°37' W 122°22'1 2.7
2018-Feb-17 23:00N 47°35' W 122°21'2 3.5
2018-Feb-17 22:30N 47°37' W 122°22'0 0.5
2018-Feb-17 22:01N 47°37' W 122°22'1 1.6
2018-Feb-17 21:28N 47°38' W 122°23'0 0.0
2018-Feb-17 20:58N 47°38' W 122°23'0 0.0
2018-Feb-17 20:28N 47°38' W 122°23'0 0.0
2018-Feb-17 19:58N 47°38' W 122°23'0 0.0
2018-Feb-17 19:25N 47°38' W 122°23'0 0.0
2018-Feb-17 18:58N 47°38' W 122°23'0 0.0
2018-Feb-17 18:28N 47°38' W 122°23'0 0.0
2018-Feb-17 17:55N 47°38' W 122°23'0 0.0
2018-Feb-17 17:28N 47°38' W 122°23'0 0.0
2018-Feb-17 17:00N 47°38' W 122°23'1 1.6
2018-Feb-17 16:30N 47°37' W 122°22'2 4.9
2018-Feb-17 16:00N 47°35' W 122°21'0 0.8
2018-Feb-17 15:30N 47°35' W 122°21'3 5.7
2018-Feb-17 15:01N 47°38' W 122°23'0 0.0
2018-Feb-17 14:30N 47°38' W 122°23'0 0.0
2018-Feb-17 14:00N 47°38' W 122°23'0 0.0
2018-Feb-17 13:30N 47°38' W 122°23'0 0.0
2018-Feb-17 13:01N 47°38' W 122°23'0 0.0
2018-Feb-17 12:30N 47°38' W 122°23'0 0.0
2018-Feb-17 12:01N 47°38' W 122°23'0 0.0
2018-Feb-17 11:30N 47°38' W 122°23'0 0.0
2018-Feb-17 11:01N 47°38' W 122°23'0 0.0
2018-Feb-17 10:30N 47°38' W 122°23'0 0.0
2018-Feb-17 10:00N 47°38' W 122°23'0 0.0
2018-Feb-17 09:30N 47°38' W 122°23'0 0.0
2018-Feb-17 08:59N 47°38' W 122°23'0 0.0
2018-Feb-17 08:30N 47°38' W 122°23'0 0.0
2018-Feb-17 08:00N 47°38' W 122°23'0 0.0
2018-Feb-17 07:30N 47°38' W 122°23'0 0.0
2018-Feb-17 07:01N 47°38' W 122°23'0 0.0
2018-Feb-17 06:30N 47°38' W 122°23'0 0.0
2018-Feb-17 06:01N 47°38' W 122°23'0 0.0
2018-Feb-17 05:30N 47°38' W 122°23'0 0.0
2018-Feb-17 05:00N 47°38' W 122°23'0 0.0
2018-Feb-17 04:30N 47°38' W 122°23'0 0.0
2018-Feb-17 04:01N 47°38' W 122°23'0 0.0
2018-Feb-17 03:30N 47°38' W 122°23'0 0.0
2018-Feb-17 03:01N 47°38' W 122°23'3 5.6
2018-Feb-17 02:30N 47°36' W 122°21'0 0.8
2018-Feb-17 01:59N 47°36' W 122°21'1 2.8
2018-Feb-17 01:30N 47°36' W 122°23'1 2.8
2018-Feb-17 01:00N 47°38' W 122°23'0 0.0
2018-Feb-17 00:30N 47°38' W 122°23'0 0.0
2018-Feb-17 00:00N 47°38' W 122°23'0 0.0
2018-Feb-16 23:30N 47°38' W 122°23'0 0.0
2018-Feb-16 23:00N 47°38' W 122°23'0 0.0
2018-Feb-16 22:31N 47°38' W 122°23'0 0.0
2018-Feb-16 22:00N 47°38' W 122°23'0 0.0
2018-Feb-16 21:31N 47°38' W 122°23'0 0.0
2018-Feb-16 21:00N 47°38' W 122°23'0 0.0
2018-Feb-16 20:30N 47°38' W 122°23'0 0.0
2018-Feb-16 20:00N 47°38' W 122°23'0 0.0
2018-Feb-16 19:30N 47°38' W 122°23'0 0.0
2018-Feb-16 19:00N 47°38' W 122°23'0 0.0
2018-Feb-16 18:30N 47°38' W 122°23'0 0.0
2018-Feb-16 18:00N 47°38' W 122°23'0 0.0
2018-Feb-16 17:31N 47°38' W 122°23'0 0.0
2018-Feb-16 17:00N 47°38' W 122°23'0 0.0
2018-Feb-16 16:30N 47°38' W 122°23'0 0.0
2018-Feb-16 16:01N 47°38' W 122°23'0 0.0
2018-Feb-16 15:31N 47°38' W 122°23'3 6.4
2018-Feb-16 15:00N 47°35' W 122°21'1 1.0
2018-Feb-16 14:30N 47°35' W 122°21'1 2.8
2018-Feb-16 14:01N 47°36' W 122°22'1 1.3
2018-Feb-16 13:30N 47°37' W 122°23'4 8.5
2018-Feb-16 13:00N 47°33' W 122°26'612.7
2018-Feb-16 12:30N 47°27' W 122°23'611.0
2018-Feb-16 12:00N 47°21' W 122°23'5 8.8
2018-Feb-16 11:28N 47°17' W 122°25'0 0.0
2018-Feb-16 04:42N 47°17' W 122°25'1 2.3
2018-Feb-16 04:16N 47°16' W 122°24'2 0.6
2018-Feb-16 01:40N 47°17' W 122°25'1 4.9
2018-Feb-16 01:28N 47°18' W 122°26'2 3.3
2018-Feb-16 01:00N 47°19' W 122°27'5 9.7
2018-Feb-16 00:30N 47°23' W 122°23'5 9.8
2018-Feb-16 00:01N 47°27' W 122°23'510.3
2018-Feb-15 23:31N 47°32' W 122°25'5 9.6
2018-Feb-15 23:00N 47°37' W 122°23'1 1.6
2018-Feb-15 22:31N 47°38' W 122°23'0 0.0
2018-Feb-15 21:59N 47°38' W 122°23'0 0.0
2018-Feb-15 21:29N 47°38' W 122°23'0 0.0
2018-Feb-15 21:00N 47°38' W 122°23'0 0.0
2018-Feb-15 20:30N 47°38' W 122°23'0 0.0
2018-Feb-15 20:00N 47°38' W 122°23'0 0.0
2018-Feb-15 19:30N 47°38' W 122°23'0 0.0
2018-Feb-15 19:00N 47°38' W 122°23'0 0.0
2018-Feb-15 18:30N 47°38' W 122°23'0 0.0
2018-Feb-15 18:01N 47°38' W 122°23'0 0.0
2018-Feb-15 17:30N 47°38' W 122°23'0 0.0
2018-Feb-15 17:00N 47°38' W 122°23'0 0.0
2018-Feb-15 16:30N 47°38' W 122°23'0 0.0
2018-Feb-15 16:00N 47°38' W 122°23'0 0.0
2018-Feb-15 15:30N 47°38' W 122°23'0 0.0
2018-Feb-15 15:00N 47°38' W 122°23'0 0.0
2018-Feb-15 14:30N 47°38' W 122°23'0 0.0
2018-Feb-15 14:01N 47°38' W 122°23'0 0.0
2018-Feb-15 13:31N 47°38' W 122°23'0 0.0
2018-Feb-15 13:00N 47°38' W 122°23'0 0.0
2018-Feb-15 12:30N 47°38' W 122°23'0 0.0
2018-Feb-15 12:00N 47°38' W 122°23'0 0.0
2018-Feb-15 11:30N 47°38' W 122°23'0 0.0
2018-Feb-15 11:00N 47°38' W 122°23'0 0.0
2018-Feb-15 10:31N 47°38' W 122°23'0 0.0
2018-Feb-15 09:59N 47°38' W 122°23'0 0.0
2018-Feb-15 09:30N 47°38' W 122°23'0 0.0
2018-Feb-15 09:00N 47°38' W 122°23'0 0.0
2018-Feb-15 08:29N 47°38' W 122°23'0 0.0
2018-Feb-15 08:00N 47°38' W 122°23'0 0.0
2018-Feb-15 07:30N 47°38' W 122°23'0 0.0
2018-Feb-15 07:01N 47°38' W 122°23'0 0.0
2018-Feb-15 06:30N 47°38' W 122°23'0 0.0
2018-Feb-15 06:00N 47°38' W 122°23'0 0.0
2018-Feb-15 05:29N 47°38' W 122°23'3 5.8
2018-Feb-15 04:57N 47°35' W 122°22'0 0.6
2018-Feb-15 04:30N 47°35' W 122°22'1 1.3
2018-Feb-15 04:00N 47°35' W 122°22'0 0.9
2018-Feb-15 03:31N 47°36' W 122°21'1 1.6
2018-Feb-15 03:00N 47°35' W 122°21'0 0.3
2018-Feb-15 02:22N 47°35' W 122°21'0 0.0
2018-Feb-15 02:00N 47°35' W 122°21'1 1.4
2018-Feb-15 01:30N 47°35' W 122°22'1 1.3
2018-Feb-15 01:00N 47°35' W 122°21'0 0.1
2018-Feb-15 00:27N 47°35' W 122°21'0 1.1
2018-Feb-15 00:01N 47°35' W 122°21'1 1.0
2018-Feb-14 23:30N 47°36' W 122°21'1 1.6
2018-Feb-14 22:59N 47°35' W 122°21'0 1.0
2018-Feb-14 22:30N 47°35' W 122°21'1 2.8
2018-Feb-14 22:00N 47°37' W 122°22'1 2.7
2018-Feb-14 21:30N 47°38' W 122°23'0 0.2
2018-Feb-14 21:00N 47°38' W 122°23'0 0.0
2018-Feb-14 20:31N 47°38' W 122°23'0 0.0
2018-Feb-14 20:00N 47°38' W 122°23'0 0.0
2018-Feb-14 19:30N 47°38' W 122°23'0 0.0
2018-Feb-14 19:01N 47°38' W 122°23'0 0.0
2018-Feb-14 18:31N 47°38' W 122°23'0 0.0
2018-Feb-14 18:00N 47°38' W 122°23'3 5.1
2018-Feb-14 17:25N 47°35' W 122°22'0 0.6
2018-Feb-14 17:00N 47°35' W 122°22'1 1.6
2018-Feb-14 16:30N 47°36' W 122°22'1 2.4
2018-Feb-14 16:00N 47°36' W 122°21'0 0.7
2018-Feb-14 15:31N 47°36' W 122°21'2 4.6
2018-Feb-14 15:01N 47°38' W 122°23'0 0.0
2018-Feb-14 14:30N 47°38' W 122°23'0 0.0
2018-Feb-14 13:58N 47°38' W 122°23'0 0.0
2018-Feb-14 13:30N 47°38' W 122°23'0 0.0
2018-Feb-14 13:00N 47°38' W 122°23'0 0.0
2018-Feb-14 12:31N 47°38' W 122°23'0 0.0
2018-Feb-14 12:01N 47°38' W 122°23'0 0.0
2018-Feb-14 11:30N 47°38' W 122°23'0 0.2
2018-Feb-14 11:00N 47°38' W 122°23'611.4
2018-Feb-14 10:31N 47°32' W 122°25'612.3
2018-Feb-14 10:00N 47°26' W 122°23'510.3
2018-Feb-14 09:30N 47°21' W 122°24'611.4
2018-Feb-14 09:01N 47°16' W 122°27'0 0.1
2018-Feb-14 08:30N 47°16' W 122°27'0 0.0
2018-Feb-14 08:01N 47°16' W 122°27'0 0.2
2018-Feb-14 07:31N 47°16' W 122°27'0 0.3
2018-Feb-14 06:55N 47°16' W 122°27'0 0.6
2018-Feb-14 06:30N 47°16' W 122°27'2 5.0
2018-Feb-14 06:00N 47°18' W 122°28'510.7
2018-Feb-14 05:30N 47°23' W 122°23'611.1
2018-Feb-14 05:00N 47°28' W 122°24'611.7
2018-Feb-14 04:30N 47°34' W 122°25'4 8.8
2018-Feb-14 04:00N 47°38' W 122°23'0 0.0
2018-Feb-14 03:30N 47°38' W 122°23'0 0.0
2018-Feb-14 03:00N 47°38' W 122°23'0 0.0
2018-Feb-14 02:30N 47°38' W 122°23'0 0.0
2018-Feb-14 02:00N 47°38' W 122°23'0 0.0
2018-Feb-14 01:30N 47°38' W 122°23'2 4.9
2018-Feb-14 01:01N 47°36' W 122°21'0 0.9
2018-Feb-14 00:29N 47°36' W 122°21'1 1.2
2018-Feb-14 00:00N 47°36' W 122°21'1 2.9
2018-Feb-13 23:31N 47°37' W 122°23'1 2.3
2018-Feb-13 23:00N 47°38' W 122°23'0 0.0
2018-Feb-13 22:30N 47°38' W 122°23'0 0.0
2018-Feb-13 21:59N 47°38' W 122°23'0 0.0
2018-Feb-13 21:31N 47°38' W 122°23'0 0.0
2018-Feb-13 21:00N 47°38' W 122°23'0 0.0
2018-Feb-13 20:30N 47°38' W 122°23'0 0.0
2018-Feb-13 19:59N 47°38' W 122°23'0 0.0
2018-Feb-13 19:31N 47°38' W 122°23'0 0.0
2018-Feb-13 19:01N 47°38' W 122°23'0 0.0
2018-Feb-13 18:31N 47°38' W 122°23'0 0.0
2018-Feb-13 18:00N 47°38' W 122°23'0 0.0
2018-Feb-13 17:31N 47°38' W 122°23'0 0.0
2018-Feb-13 17:00N 47°38' W 122°23'0 0.0
2018-Feb-13 16:30N 47°38' W 122°23'0 0.0
2018-Feb-13 16:00N 47°38' W 122°23'0 0.0
2018-Feb-13 15:30N 47°38' W 122°23'0 0.0
2018-Feb-13 15:00N 47°38' W 122°23'0 0.0
2018-Feb-13 14:30N 47°38' W 122°23'0 0.0
2018-Feb-13 13:58N 47°38' W 122°23'0 0.0
2018-Feb-13 13:30N 47°38' W 122°23'0 0.0
2018-Feb-13 13:00N 47°38' W 122°23'0 0.0
2018-Feb-13 12:30N 47°38' W 122°23'0 0.0
2018-Feb-13 12:00N 47°38' W 122°23'0 0.0
2018-Feb-13 11:31N 47°38' W 122°23'0 0.0
2018-Feb-13 11:00N 47°38' W 122°23'0 0.0
2018-Feb-13 10:30N 47°38' W 122°23'0 0.0
2018-Feb-13 10:01N 47°38' W 122°23'0 0.0
2018-Feb-13 09:29N 47°38' W 122°23'0 0.0
2018-Feb-13 09:00N 47°38' W 122°23'3 5.4
2018-Feb-13 08:30N 47°36' W 122°25'5 9.7
2018-Feb-13 08:00N 47°31' W 122°25'510.0
2018-Feb-13 07:30N 47°26' W 122°23'4 8.6
2018-Feb-13 07:01N 47°22' W 122°23'5 9.9
2018-Feb-13 06:30N 47°17' W 122°26'2 2.5
2018-Feb-13 05:52N 47°16' W 122°25'0 1.3
2018-Feb-13 05:30N 47°16' W 122°25'1 1.9
2018-Feb-13 04:59N 47°17' W 122°26'0 0.7
2018-Feb-13 04:29N 47°18' W 122°26'4 7.7
2018-Feb-13 04:00N 47°21' W 122°25'4 9.0
2018-Feb-13 03:31N 47°26' W 122°23'611.2
2018-Feb-13 03:00N 47°31' W 122°24'510.2
2018-Feb-13 02:31N 47°36' W 122°24'2 3.3
2018-Feb-13 01:57N 47°38' W 122°23'0 0.0
2018-Feb-13 01:30N 47°38' W 122°23'0 0.0
2018-Feb-13 01:00N 47°38' W 122°23'0 0.0
2018-Feb-13 00:30N 47°38' W 122°23'0 0.0
2018-Feb-13 00:00N 47°38' W 122°23'0 0.0
2018-Feb-12 23:27N 47°38' W 122°23'0 0.0
2018-Feb-12 23:00N 47°38' W 122°23'0 0.0
2018-Feb-12 22:30N 47°38' W 122°23'0 0.0
2018-Feb-12 22:00N 47°38' W 122°23'0 0.0
2018-Feb-12 21:30N 47°38' W 122°23'0 0.0
2018-Feb-12 21:00N 47°38' W 122°23'0 0.0
2018-Feb-12 20:30N 47°38' W 122°23'0 0.0
2018-Feb-12 20:00N 47°38' W 122°23'0 0.0
2018-Feb-12 19:30N 47°38' W 122°23'0 0.0
2018-Feb-12 19:00N 47°38' W 122°23'0 0.0
2018-Feb-12 18:30N 47°38' W 122°23'0 0.0
2018-Feb-12 18:00N 47°38' W 122°23'0 0.0
2018-Feb-12 17:24N 47°38' W 122°23'0 0.0
2018-Feb-12 16:54N 47°38' W 122°23'0 0.0
2018-Feb-12 16:30N 47°38' W 122°23'0 0.0
2018-Feb-12 16:00N 47°38' W 122°23'0 0.0
2018-Feb-12 15:18N 47°38' W 122°23'0 0.0
2018-Feb-12 14:54N 47°38' W 122°23'0 0.1
2018-Feb-12 14:30N 47°38' W 122°23'3 5.8
2018-Feb-12 14:00N 47°35' W 122°21'0 0.0
2018-Feb-12 13:30N 47°35' W 122°21'1 1.6
2018-Feb-12 12:58N 47°36' W 122°21'1 3.0
2018-Feb-12 12:30N 47°37' W 122°22'1 1.9
2018-Feb-12 12:00N 47°38' W 122°23'0 0.0
2018-Feb-12 11:30N 47°38' W 122°23'0 0.0
2018-Feb-12 11:00N 47°38' W 122°23'0 0.0
2018-Feb-12 10:30N 47°38' W 122°23'0 0.0
2018-Feb-12 10:00N 47°38' W 122°23'0 0.0
2018-Feb-12 09:30N 47°38' W 122°23'0 0.0
2018-Feb-12 09:00N 47°38' W 122°23'0 0.0
2018-Feb-12 08:30N 47°38' W 122°23'0 0.0
2018-Feb-12 07:59N 47°38' W 122°23'0 0.0
2018-Feb-12 07:30N 47°38' W 122°23'3 6.9
2018-Feb-12 07:00N 47°35' W 122°21'0 0.0
2018-Feb-12 06:28N 47°35' W 122°21'0 0.0
2018-Feb-12 06:00N 47°35' W 122°21'0 0.0
2018-Feb-12 05:30N 47°35' W 122°21'1 1.2
2018-Feb-12 05:00N 47°35' W 122°21'0 0.5
2018-Feb-12 04:30N 47°36' W 122°21'1 1.8
2018-Feb-12 04:00N 47°36' W 122°22'1 1.5
2018-Feb-12 03:30N 47°36' W 122°21'0 0.7
2018-Feb-12 02:51N 47°35' W 122°21'0 0.5
2018-Feb-12 02:26N 47°36' W 122°21'0 0.1
2018-Feb-12 01:59N 47°36' W 122°21'0 0.2
2018-Feb-12 01:28N 47°35' W 122°21'0 0.5
2018-Feb-12 00:48N 47°35' W 122°21'0 1.7
2018-Feb-12 00:30N 47°36' W 122°21'3 5.1
2018-Feb-11 23:58N 47°38' W 122°23'0 0.0
2018-Feb-11 23:30N 47°38' W 122°23'0 0.0
2018-Feb-11 23:00N 47°38' W 122°23'0 0.0
2018-Feb-11 22:30N 47°38' W 122°23'0 0.0
2018-Feb-11 22:00N 47°38' W 122°23'0 0.0
2018-Feb-11 21:30N 47°38' W 122°23'0 0.0
2018-Feb-11 21:00N 47°38' W 122°23'0 0.0
2018-Feb-11 20:30N 47°38' W 122°23'0 0.0
2018-Feb-11 20:00N 47°38' W 122°23'0 0.0
2018-Feb-11 19:30N 47°38' W 122°23'0 0.0
2018-Feb-11 19:00N 47°38' W 122°23'2 4.2
2018-Feb-11 18:30N 47°36' W 122°24'611.1
2018-Feb-11 18:00N 47°30' W 122°25'612.1
2018-Feb-11 17:29N 47°24' W 122°22'7 1.6
2018-Feb-11 12:54N 47°18' W 122°27'5 9.5
2018-Feb-11 12:23N 47°22' W 122°23'3 9.2
2018-Feb-11 12:00N 47°26' W 122°23'611.6
2018-Feb-11 11:30N 47°31' W 122°25'510.5
2018-Feb-11 11:00N 47°37' W 122°24'1 2.8
2018-Feb-11 10:30N 47°38' W 122°23'0 0.0
2018-Feb-11 10:00N 47°38' W 122°23'0 0.0
2018-Feb-11 09:30N 47°38' W 122°23'0 0.0
2018-Feb-11 08:58N 47°38' W 122°23'0 0.0
2018-Feb-11 08:29N 47°38' W 122°23'0 0.0
2018-Feb-11 08:00N 47°38' W 122°23'0 0.0
2018-Feb-11 07:30N 47°38' W 122°23'0 0.0
2018-Feb-11 06:59N 47°38' W 122°23'0 0.0
2018-Feb-11 06:30N 47°38' W 122°23'0 0.0
2018-Feb-11 05:58N 47°38' W 122°23'0 0.0
2018-Feb-11 05:30N 47°38' W 122°23'0 0.0
2018-Feb-11 05:00N 47°38' W 122°23'0 0.0
2018-Feb-11 04:30N 47°38' W 122°23'0 0.0
2018-Feb-11 04:00N 47°38' W 122°23'0 0.0
2018-Feb-11 03:29N 47°38' W 122°23'0 0.0
2018-Feb-11 03:00N 47°38' W 122°23'0 0.0
2018-Feb-11 02:30N 47°38' W 122°23'0 0.0
2018-Feb-11 01:59N 47°38' W 122°23'0 0.0
2018-Feb-11 01:30N 47°38' W 122°23'0 0.0
2018-Feb-11 01:00N 47°38' W 122°23'0 0.0
2018-Feb-11 00:30N 47°38' W 122°23'0 0.0
2018-Feb-10 23:59N 47°38' W 122°23'0 0.0
2018-Feb-10 23:28N 47°38' W 122°23'0 0.0
2018-Feb-10 23:00N 47°38' W 122°23'0 0.0
2018-Feb-10 22:30N 47°38' W 122°23'0 0.0
2018-Feb-10 22:00N 47°38' W 122°23'0 0.0
2018-Feb-10 21:30N 47°38' W 122°23'0 0.0
2018-Feb-10 21:00N 47°38' W 122°23'0 0.0
2018-Feb-10 20:30N 47°38' W 122°23'0 0.9
2018-Feb-10 20:00N 47°37' W 122°23'  
Track history (hours):
 
Tides and Currents Weather Stations Pressure Air Temp Water Temp Dewpoint Dewpoint Depression Visibility Wind Speed Wind Dir Waves Ship Positions

Bo Brusco

Owner: Brusco Tug & Barge, Inc., Longview, WA. More information available from US FCC via Universal Licensing System and Coast Guard Vessel Documentation Center.

Last reported at 2018-Feb-20 19:30 UTC. Time now 2018-Feb-20 19:42 UTC.
Position N 47°38' W 122°23'.

Length 24 m; draft 5 m.

Type: Towing. MMSI: 367642530.

Date/timePositionNaut miles runAvg speedWind from/ knotsBaromVisibWave heightAir tempDewpointWater temp
2018-Feb-20 19:30N 47°38' W 122°23'0 0.0
2018-Feb-20 18:59N 47°38' W 122°23'0 0.0
2018-Feb-20 18:29N 47°38' W 122°23'0 0.0
2018-Feb-20 18:00N 47°38' W 122°23'0 0.0
2018-Feb-20 17:30N 47°38' W 122°23'0 0.0
2018-Feb-20 17:00N 47°38' W 122°23'0 0.0
2018-Feb-20 16:30N 47°38' W 122°23'0 0.0
2018-Feb-20 16:00N 47°38' W 122°23'0 0.0
2018-Feb-20 15:30N 47°38' W 122°23'0 0.0
2018-Feb-20 15:00N 47°38' W 122°23'0 0.0
2018-Feb-20 14:30N 47°38' W 122°23'0 0.0
2018-Feb-20 14:00N 47°38' W 122°23'0 0.0
2018-Feb-20 13:30N 47°38' W 122°23'0 0.0
2018-Feb-20 13:00N 47°38' W 122°23'0 0.0
2018-Feb-20 12:30N 47°38' W 122°23'0 0.0
2018-Feb-20 12:00N 47°38' W 122°23'0 0.0
2018-Feb-20 11:30N 47°38' W 122°23'0 0.0
2018-Feb-20 11:00N 47°38' W 122°23'0 0.0
2018-Feb-20 10:30N 47°38' W 122°23'0 0.0
2018-Feb-20 10:00N 47°38' W 122°23'0 0.0
2018-Feb-20 09:30N 47°38' W 122°23'0 0.0
2018-Feb-20 09:00N 47°38' W 122°23'0 0.0
2018-Feb-20 08:30N 47°38' W 122°23'0 0.0
2018-Feb-20 08:00N 47°38' W 122°23'0 0.0
2018-Feb-20 07:30N 47°38' W 122°23'0 0.0
2018-Feb-20 07:00N 47°38' W 122°23'0 0.0
2018-Feb-20 06:30N 47°38' W 122°23'0 0.0
2018-Feb-20 06:00N 47°38' W 122°23'0 0.0
2018-Feb-20 05:30N 47°38' W 122°23'0 0.0
2018-Feb-20 04:59N 47°38' W 122°23'0 0.0
2018-Feb-20 04:30N 47°38' W 122°23'0 0.0
2018-Feb-20 04:00N 47°38' W 122°23'0 0.0
2018-Feb-20 03:30N 47°38' W 122°23'0 0.0
2018-Feb-20 03:00N 47°38' W 122°23'0 0.0
2018-Feb-20 02:30N 47°38' W 122°23'0 0.0
2018-Feb-20 02:00N 47°38' W 122°23'0 0.0
2018-Feb-20 01:30N 47°38' W 122°23'0 0.0
2018-Feb-20 01:00N 47°38' W 122°23'0 0.0
2018-Feb-20 00:31N 47°38' W 122°23'0 0.0
2018-Feb-20 00:00N 47°38' W 122°23'0 0.0
2018-Feb-19 23:30N 47°38' W 122°23'0 0.0
2018-Feb-19 23:00N 47°38' W 122°23'0 0.0
2018-Feb-19 22:30N 47°38' W 122°23'0 0.0
2018-Feb-19 22:00N 47°38' W 122°23'0 0.0
2018-Feb-19 21:30N 47°38' W 122°23'0 0.0
2018-Feb-19 21:00N 47°38' W 122°23'0 0.0
2018-Feb-19 20:30N 47°38' W 122°23'0 0.0
2018-Feb-19 20:00N 47°38' W 122°23'0 0.0
2018-Feb-19 19:30N 47°38' W 122°23'0 0.0
2018-Feb-19 19:00N 47°38' W 122°23'0 0.0
2018-Feb-19 18:30N 47°38' W 122°23'0 0.0
2018-Feb-19 18:00N 47°38' W 122°23'0 0.0
2018-Feb-19 17:30N 47°38' W 122°23'0 0.0
2018-Feb-19 17:00N 47°38' W 122°23'0 0.0
2018-Feb-19 16:30N 47°38' W 122°23'0 0.0
2018-Feb-19 16:00N 47°38' W 122°23'0 0.0
2018-Feb-19 15:30N 47°38' W 122°23'0 0.0
2018-Feb-19 15:00N 47°38' W 122°23'0 0.5
2018-Feb-19 14:30N 47°38' W 122°23'3 5.3
2018-Feb-19 13:56N 47°35' W 122°21'0 0.1
2018-Feb-19 13:24N 47°35' W 122°21'1 1.7
2018-Feb-19 13:00N 47°36' W 122°21'1 2.1
2018-Feb-19 12:30N 47°36' W 122°22'1 2.7
2018-Feb-19 12:00N 47°38' W 122°23'0 0.7
2018-Feb-19 11:30N 47°38' W 122°23'0 0.0
2018-Feb-19 11:00N 47°38' W 122°23'0 0.0
2018-Feb-19 10:30N 47°38' W 122°23'3 5.4
2018-Feb-19 10:00N 47°36' W 122°21'0 0.2
2018-Feb-19 09:29N 47°36' W 122°21'3 5.8
2018-Feb-19 09:00N 47°35' W 122°25'612.1
2018-Feb-19 08:30N 47°30' W 122°29'713.2
2018-Feb-19 07:59N 47°23' W 122°32'511.2
2018-Feb-19 07:30N 47°18' W 122°29'3 1.6
2018-Feb-19 05:35N 47°17' W 122°25'0 2.3
2018-Feb-19 05:24N 47°17' W 122°26'1 1.4
2018-Feb-19 05:00N 47°17' W 122°27'1 1.5
2018-Feb-19 04:29N 47°18' W 122°26'3 1.0
2018-Feb-19 01:24N 47°16' W 122°23'3 8.2
2018-Feb-19 01:00N 47°18' W 122°27'4 9.1
2018-Feb-19 00:30N 47°22' W 122°24'5 9.8
2018-Feb-19 00:00N 47°27' W 122°23'611.4
2018-Feb-18 23:30N 47°32' W 122°25'510.5
2018-Feb-18 23:00N 47°37' W 122°23'1 1.1
2018-Feb-18 22:30N 47°38' W 122°23'1 1.3
2018-Feb-18 22:00N 47°37' W 122°22'0 0.0
2018-Feb-18 21:31N 47°37' W 122°22'0 0.8
2018-Feb-18 21:00N 47°37' W 122°22'0 0.8
2018-Feb-18 20:29N 47°37' W 122°22'1 1.4
2018-Feb-18 20:00N 47°38' W 122°23'3 5.5
2018-Feb-18 19:30N 47°35' W 122°21'0 0.0
2018-Feb-18 19:00N 47°35' W 122°21'0 0.0
2018-Feb-18 18:30N 47°35' W 122°21'0 0.0
2018-Feb-18 18:00N 47°35' W 122°21'0 0.0
2018-Feb-18 17:28N 47°35' W 122°21'3 5.6
2018-Feb-18 17:00N 47°38' W 122°23'0 0.5
2018-Feb-18 16:29N 47°38' W 122°23'0 0.0
2018-Feb-18 16:00N 47°38' W 122°23'0 0.0
2018-Feb-18 15:30N 47°38' W 122°23'0 0.0
2018-Feb-18 15:00N 47°38' W 122°23'0 0.0
2018-Feb-18 14:30N 47°38' W 122°23'0 0.0
2018-Feb-18 14:00N 47°38' W 122°23'0 0.0
2018-Feb-18 13:30N 47°38' W 122°23'0 0.0
2018-Feb-18 13:00N 47°38' W 122°23'0 0.0
2018-Feb-18 12:30N 47°38' W 122°23'0 0.0
2018-Feb-18 12:00N 47°38' W 122°23'0 0.0
2018-Feb-18 11:30N 47°38' W 122°23'0 0.0
2018-Feb-18 11:00N 47°38' W 122°23'0 0.0
2018-Feb-18 10:30N 47°38' W 122°23'0 0.0
2018-Feb-18 10:00N 47°38' W 122°23'0 0.0
2018-Feb-18 09:30N 47°38' W 122°23'0 0.0
2018-Feb-18 09:00N 47°38' W 122°23'0 0.0
2018-Feb-18 08:30N 47°38' W 122°23'0 0.0
2018-Feb-18 08:00N 47°38' W 122°23'0 0.0
2018-Feb-18 07:30N 47°38' W 122°23'0 0.0
2018-Feb-18 07:00N 47°38' W 122°23'0 0.0
2018-Feb-18 06:30N 47°38' W 122°23'0 0.0
2018-Feb-18 06:00N 47°38' W 122°23'0 0.0
2018-Feb-18 05:30N 47°38' W 122°23'0 0.0
2018-Feb-18 05:00N 47°38' W 122°23'0 0.0
2018-Feb-18 04:30N 47°38' W 122°23'0 0.0
2018-Feb-18 04:00N 47°38' W 122°23'0 0.0
2018-Feb-18 03:30N 47°38' W 122°23'0 0.0
2018-Feb-18 03:00N 47°38' W 122°23'0 0.0
2018-Feb-18 02:29N 47°38' W 122°23'0 0.0
2018-Feb-18 02:00N 47°38' W 122°23'2 3.2
2018-Feb-18 01:30N 47°36' W 122°22'1 3.0
2018-Feb-18 01:00N 47°35' W 122°21'0 0.4
2018-Feb-18 00:30N 47°35' W 122°21'1 1.7
2018-Feb-18 00:00N 47°36' W 122°21'1 1.1
2018-Feb-17 23:30N 47°37' W 122°22'1 2.7
2018-Feb-17 23:00N 47°35' W 122°21'2 3.5
2018-Feb-17 22:30N 47°37' W 122°22'0 0.5
2018-Feb-17 22:01N 47°37' W 122°22'1 1.6
2018-Feb-17 21:28N 47°38' W 122°23'0 0.0
2018-Feb-17 20:58N 47°38' W 122°23'0 0.0
2018-Feb-17 20:28N 47°38' W 122°23'0 0.0
2018-Feb-17 19:58N 47°38' W 122°23'0 0.0
2018-Feb-17 19:25N 47°38' W 122°23'0 0.0
2018-Feb-17 18:58N 47°38' W 122°23'0 0.0
2018-Feb-17 18:28N 47°38' W 122°23'0 0.0
2018-Feb-17 17:55N 47°38' W 122°23'0 0.0
2018-Feb-17 17:28N 47°38' W 122°23'0 0.0
2018-Feb-17 17:00N 47°38' W 122°23'1 1.6
2018-Feb-17 16:30N 47°37' W 122°22'2 4.9
2018-Feb-17 16:00N 47°35' W 122°21'0 0.8
2018-Feb-17 15:30N 47°35' W 122°21'3 5.7
2018-Feb-17 15:01N 47°38' W 122°23'0 0.0
2018-Feb-17 14:30N 47°38' W 122°23'0 0.0
2018-Feb-17 14:00N 47°38' W 122°23'0 0.0
2018-Feb-17 13:30N 47°38' W 122°23'0 0.0
2018-Feb-17 13:01N 47°38' W 122°23'0 0.0
2018-Feb-17 12:30N 47°38' W 122°23'0 0.0
2018-Feb-17 12:01N 47°38' W 122°23'0 0.0
2018-Feb-17 11:30N 47°38' W 122°23'0 0.0
2018-Feb-17 11:01N 47°38' W 122°23'0 0.0
2018-Feb-17 10:30N 47°38' W 122°23'0 0.0
2018-Feb-17 10:00N 47°38' W 122°23'0 0.0
2018-Feb-17 09:30N 47°38' W 122°23'0 0.0
2018-Feb-17 08:59N 47°38' W 122°23'0 0.0
2018-Feb-17 08:30N 47°38' W 122°23'0 0.0
2018-Feb-17 08:00N 47°38' W 122°23'0 0.0
2018-Feb-17 07:30N 47°38' W 122°23'0 0.0
2018-Feb-17 07:01N 47°38' W 122°23'0 0.0
2018-Feb-17 06:30N 47°38' W 122°23'0 0.0
2018-Feb-17 06:01N 47°38' W 122°23'0 0.0
2018-Feb-17 05:30N 47°38' W 122°23'0 0.0
2018-Feb-17 05:00N 47°38' W 122°23'0 0.0
2018-Feb-17 04:30N 47°38' W 122°23'0 0.0
2018-Feb-17 04:01N 47°38' W 122°23'0 0.0
2018-Feb-17 03:30N 47°38' W 122°23'0 0.0
2018-Feb-17 03:01N 47°38' W 122°23'3 5.6
2018-Feb-17 02:30N 47°36' W 122°21'0 0.8
2018-Feb-17 01:59N 47°36' W 122°21'1 2.8
2018-Feb-17 01:30N 47°36' W 122°23'1 2.8
2018-Feb-17 01:00N 47°38' W 122°23'0 0.0
2018-Feb-17 00:30N 47°38' W 122°23'0 0.0
2018-Feb-17 00:00N 47°38' W 122°23'0 0.0
2018-Feb-16 23:30N 47°38' W 122°23'0 0.0
2018-Feb-16 23:00N 47°38' W 122°23'0 0.0
2018-Feb-16 22:31N 47°38' W 122°23'0 0.0
2018-Feb-16 22:00N 47°38' W 122°23'0 0.0
2018-Feb-16 21:31N 47°38' W 122°23'0 0.0
2018-Feb-16 21:00N 47°38' W 122°23'0 0.0
2018-Feb-16 20:30N 47°38' W 122°23'0 0.0
2018-Feb-16 20:00N 47°38' W 122°23'0 0.0
2018-Feb-16 19:30N 47°38' W 122°23'0 0.0
2018-Feb-16 19:00N 47°38' W 122°23'0 0.0
2018-Feb-16 18:30N 47°38' W 122°23'0 0.0
2018-Feb-16 18:00N 47°38' W 122°23'0 0.0
2018-Feb-16 17:31N 47°38' W 122°23'0 0.0
2018-Feb-16 17:00N 47°38' W 122°23'0 0.0
2018-Feb-16 16:30N 47°38' W 122°23'0 0.0
2018-Feb-16 16:01N 47°38' W 122°23'0 0.0
2018-Feb-16 15:31N 47°38' W 122°23'3 6.4
2018-Feb-16 15:00N 47°35' W 122°21'1 1.0
2018-Feb-16 14:30N 47°35' W 122°21'1 2.8
2018-Feb-16 14:01N 47°36' W 122°22'1 1.3
2018-Feb-16 13:30N 47°37' W 122°23'4 8.5
2018-Feb-16 13:00N 47°33' W 122°26'612.7
2018-Feb-16 12:30N 47°27' W 122°23'611.0
2018-Feb-16 12:00N 47°21' W 122°23'5 8.8
2018-Feb-16 11:28N 47°17' W 122°25'0 0.0
2018-Feb-16 04:42N 47°17' W 122°25'1 2.3
2018-Feb-16 04:16N 47°16' W 122°24'2 0.6
2018-Feb-16 01:40N 47°17' W 122°25'1 4.9
2018-Feb-16 01:28N 47°18' W 122°26'2 3.3
2018-Feb-16 01:00N 47°19' W 122°27'5 9.7
2018-Feb-16 00:30N 47°23' W 122°23'5 9.8
2018-Feb-16 00:01N 47°27' W 122°23'510.3
2018-Feb-15 23:31N 47°32' W 122°25'5 9.6
2018-Feb-15 23:00N 47°37' W 122°23'1 1.6
2018-Feb-15 22:31N 47°38' W 122°23'0 0.0
2018-Feb-15 21:59N 47°38' W 122°23'0 0.0
2018-Feb-15 21:29N 47°38' W 122°23'0 0.0
2018-Feb-15 21:00N 47°38' W 122°23'0 0.0
2018-Feb-15 20:30N 47°38' W 122°23'0 0.0
2018-Feb-15 20:00N 47°38' W 122°23'0 0.0
2018-Feb-15 19:30N 47°38' W 122°23'0 0.0
2018-Feb-15 19:00N 47°38' W 122°23'0 0.0
2018-Feb-15 18:30N 47°38' W 122°23'0 0.0
2018-Feb-15 18:01N 47°38' W 122°23'0 0.0
2018-Feb-15 17:30N 47°38' W 122°23'0 0.0
2018-Feb-15 17:00N 47°38' W 122°23'0 0.0
2018-Feb-15 16:30N 47°38' W 122°23'0 0.0
2018-Feb-15 16:00N 47°38' W 122°23'0 0.0
2018-Feb-15 15:30N 47°38' W 122°23'0 0.0
2018-Feb-15 15:00N 47°38' W 122°23'0 0.0
2018-Feb-15 14:30N 47°38' W 122°23'0 0.0
2018-Feb-15 14:01N 47°38' W 122°23'0 0.0
2018-Feb-15 13:31N 47°38' W 122°23'0 0.0
2018-Feb-15 13:00N 47°38' W 122°23'0 0.0
2018-Feb-15 12:30N 47°38' W 122°23'0 0.0
2018-Feb-15 12:00N 47°38' W 122°23'0 0.0
2018-Feb-15 11:30N 47°38' W 122°23'0 0.0
2018-Feb-15 11:00N 47°38' W 122°23'0 0.0
2018-Feb-15 10:31N 47°38' W 122°23'0 0.0
2018-Feb-15 09:59N 47°38' W 122°23'0 0.0
2018-Feb-15 09:30N 47°38' W 122°23'0 0.0
2018-Feb-15 09:00N 47°38' W 122°23'0 0.0
2018-Feb-15 08:29N 47°38' W 122°23'0 0.0
2018-Feb-15 08:00N 47°38' W 122°23'0 0.0
2018-Feb-15 07:30N 47°38' W 122°23'0 0.0
2018-Feb-15 07:01N 47°38' W 122°23'0 0.0
2018-Feb-15 06:30N 47°38' W 122°23'0 0.0
2018-Feb-15 06:00N 47°38' W 122°23'0 0.0
2018-Feb-15 05:29N 47°38' W 122°23'3 5.8
2018-Feb-15 04:57N 47°35' W 122°22'0 0.6
2018-Feb-15 04:30N 47°35' W 122°22'1 1.3
2018-Feb-15 04:00N 47°35' W 122°22'0 0.9
2018-Feb-15 03:31N 47°36' W 122°21'1 1.6
2018-Feb-15 03:00N 47°35' W 122°21'0 0.3
2018-Feb-15 02:22N 47°35' W 122°21'0 0.0
2018-Feb-15 02:00N 47°35' W 122°21'1 1.4
2018-Feb-15 01:30N 47°35' W 122°22'1 1.3
2018-Feb-15 01:00N 47°35' W 122°21'0 0.1
2018-Feb-15 00:27N 47°35' W 122°21'0 1.1
2018-Feb-15 00:01N 47°35' W 122°21'1 1.0
2018-Feb-14 23:30N 47°36' W 122°21'1 1.6
2018-Feb-14 22:59N 47°35' W 122°21'0 1.0
2018-Feb-14 22:30N 47°35' W 122°21'1 2.8
2018-Feb-14 22:00N 47°37' W 122°22'1 2.7
2018-Feb-14 21:30N 47°38' W 122°23'0 0.2
2018-Feb-14 21:00N 47°38' W 122°23'0 0.0
2018-Feb-14 20:31N 47°38' W 122°23'0 0.0
2018-Feb-14 20:00N 47°38' W 122°23'0 0.0
2018-Feb-14 19:30N 47°38' W 122°23'0 0.0
2018-Feb-14 19:01N 47°38' W 122°23'0 0.0
2018-Feb-14 18:31N 47°38' W 122°23'0 0.0
2018-Feb-14 18:00N 47°38' W 122°23'3 5.1
2018-Feb-14 17:25N 47°35' W 122°22'0 0.6
2018-Feb-14 17:00N 47°35' W 122°22'1 1.6
2018-Feb-14 16:30N 47°36' W 122°22'1 2.4
2018-Feb-14 16:00N 47°36' W 122°21'0 0.7
2018-Feb-14 15:31N 47°36' W 122°21'2 4.6
2018-Feb-14 15:01N 47°38' W 122°23'0 0.0
2018-Feb-14 14:30N 47°38' W 122°23'0 0.0
2018-Feb-14 13:58N 47°38' W 122°23'0 0.0
2018-Feb-14 13:30N 47°38' W 122°23'0 0.0
2018-Feb-14 13:00N 47°38' W 122°23'0 0.0
2018-Feb-14 12:31N 47°38' W 122°23'0 0.0
2018-Feb-14 12:01N 47°38' W 122°23'0 0.0
2018-Feb-14 11:30N 47°38' W 122°23'0 0.2
2018-Feb-14 11:00N 47°38' W 122°23'611.4
2018-Feb-14 10:31N 47°32' W 122°25'612.3
2018-Feb-14 10:00N 47°26' W 122°23'510.3
2018-Feb-14 09:30N 47°21' W 122°24'611.4
2018-Feb-14 09:01N 47°16' W 122°27'0 0.1
2018-Feb-14 08:30N 47°16' W 122°27'0 0.0
2018-Feb-14 08:01N 47°16' W 122°27'0 0.2
2018-Feb-14 07:31N 47°16' W 122°27'0 0.3
2018-Feb-14 06:55N 47°16' W 122°27'0 0.6
2018-Feb-14 06:30N 47°16' W 122°27'2 5.0
2018-Feb-14 06:00N 47°18' W 122°28'510.7
2018-Feb-14 05:30N 47°23' W 122°23'611.1
2018-Feb-14 05:00N 47°28' W 122°24'611.7
2018-Feb-14 04:30N 47°34' W 122°25'4 8.8
2018-Feb-14 04:00N 47°38' W 122°23'0 0.0
2018-Feb-14 03:30N 47°38' W 122°23'0 0.0
2018-Feb-14 03:00N 47°38' W 122°23'0 0.0
2018-Feb-14 02:30N 47°38' W 122°23'0 0.0
2018-Feb-14 02:00N 47°38' W 122°23'0 0.0
2018-Feb-14 01:30N 47°38' W 122°23'2 4.9
2018-Feb-14 01:01N 47°36' W 122°21'0 0.9
2018-Feb-14 00:29N 47°36' W 122°21'1 1.2
2018-Feb-14 00:00N 47°36' W 122°21'1 2.9
2018-Feb-13 23:31N 47°37' W 122°23'1 2.3
2018-Feb-13 23:00N 47°38' W 122°23'0 0.0
2018-Feb-13 22:30N 47°38' W 122°23'0 0.0
2018-Feb-13 21:59N 47°38' W 122°23'0 0.0
2018-Feb-13 21:31N 47°38' W 122°23'0 0.0
2018-Feb-13 21:00N 47°38' W 122°23'0 0.0
2018-Feb-13 20:30N 47°38' W 122°23'0 0.0
2018-Feb-13 19:59N 47°38' W 122°23'0 0.0
2018-Feb-13 19:31N 47°38' W 122°23'0 0.0
2018-Feb-13 19:01N 47°38' W 122°23'0 0.0
2018-Feb-13 18:31N 47°38' W 122°23'0 0.0
2018-Feb-13 18:00N 47°38' W 122°23'0 0.0
2018-Feb-13 17:31N 47°38' W 122°23'0 0.0
2018-Feb-13 17:00N 47°38' W 122°23'0 0.0
2018-Feb-13 16:30N 47°38' W 122°23'0 0.0
2018-Feb-13 16:00N 47°38' W 122°23'0 0.0
2018-Feb-13 15:30N 47°38' W 122°23'0 0.0
2018-Feb-13 15:00N 47°38' W 122°23'0 0.0
2018-Feb-13 14:30N 47°38' W 122°23'0 0.0
2018-Feb-13 13:58N 47°38' W 122°23'0 0.0
2018-Feb-13 13:30N 47°38' W 122°23'0 0.0
2018-Feb-13 13:00N 47°38' W 122°23'0 0.0
2018-Feb-13 12:30N 47°38' W 122°23'0 0.0
2018-Feb-13 12:00N 47°38' W 122°23'0 0.0
2018-Feb-13 11:31N 47°38' W 122°23'0 0.0
2018-Feb-13 11:00N 47°38' W 122°23'0 0.0
2018-Feb-13 10:30N 47°38' W 122°23'0 0.0
2018-Feb-13 10:01N 47°38' W 122°23'0 0.0
2018-Feb-13 09:29N 47°38' W 122°23'0 0.0
2018-Feb-13 09:00N 47°38' W 122°23'3 5.4
2018-Feb-13 08:30N 47°36' W 122°25'5 9.7
2018-Feb-13 08:00N 47°31' W 122°25'510.0
2018-Feb-13 07:30N 47°26' W 122°23'4 8.6
2018-Feb-13 07:01N 47°22' W 122°23'5 9.9
2018-Feb-13 06:30N 47°17' W 122°26'2 2.5
2018-Feb-13 05:52N 47°16' W 122°25'0 1.3
2018-Feb-13 05:30N 47°16' W 122°25'1 1.9
2018-Feb-13 04:59N 47°17' W 122°26'0 0.7
2018-Feb-13 04:29N 47°18' W 122°26'4 7.7
2018-Feb-13 04:00N 47°21' W 122°25'4 9.0
2018-Feb-13 03:31N 47°26' W 122°23'611.2
2018-Feb-13 03:00N 47°31' W 122°24'510.2
2018-Feb-13 02:31N 47°36' W 122°24'2 3.3
2018-Feb-13 01:57N 47°38' W 122°23'0 0.0
2018-Feb-13 01:30N 47°38' W 122°23'0 0.0
2018-Feb-13 01:00N 47°38' W 122°23'0 0.0
2018-Feb-13 00:30N 47°38' W 122°23'0 0.0
2018-Feb-13 00:00N 47°38' W 122°23'0 0.0
2018-Feb-12 23:27N 47°38' W 122°23'0 0.0
2018-Feb-12 23:00N 47°38' W 122°23'0 0.0
2018-Feb-12 22:30N 47°38' W 122°23'0 0.0
2018-Feb-12 22:00N 47°38' W 122°23'0 0.0
2018-Feb-12 21:30N 47°38' W 122°23'0 0.0
2018-Feb-12 21:00N 47°38' W 122°23'0 0.0
2018-Feb-12 20:30N 47°38' W 122°23'0 0.0
2018-Feb-12 20:00N 47°38' W 122°23'0 0.0
2018-Feb-12 19:30N 47°38' W 122°23'0 0.0
2018-Feb-12 19:00N 47°38' W 122°23'0 0.0
2018-Feb-12 18:30N 47°38' W 122°23'0 0.0
2018-Feb-12 18:00N 47°38' W 122°23'0 0.0
2018-Feb-12 17:24N 47°38' W 122°23'0 0.0
2018-Feb-12 16:54N 47°38' W 122°23'0 0.0
2018-Feb-12 16:30N 47°38' W 122°23'0 0.0
2018-Feb-12 16:00N 47°38' W 122°23'0 0.0
2018-Feb-12 15:18N 47°38' W 122°23'0 0.0
2018-Feb-12 14:54N 47°38' W 122°23'0 0.1
2018-Feb-12 14:30N 47°38' W 122°23'3 5.8
2018-Feb-12 14:00N 47°35' W 122°21'0 0.0
2018-Feb-12 13:30N 47°35' W 122°21'1 1.6
2018-Feb-12 12:58N 47°36' W 122°21'1 3.0
2018-Feb-12 12:30N 47°37' W 122°22'1 1.9
2018-Feb-12 12:00N 47°38' W 122°23'0 0.0
2018-Feb-12 11:30N 47°38' W 122°23'0 0.0
2018-Feb-12 11:00N 47°38' W 122°23'0 0.0
2018-Feb-12 10:30N 47°38' W 122°23'0 0.0
2018-Feb-12 10:00N 47°38' W 122°23'0 0.0
2018-Feb-12 09:30N 47°38' W 122°23'0 0.0
2018-Feb-12 09:00N 47°38' W 122°23'0 0.0
2018-Feb-12 08:30N 47°38' W 122°23'0 0.0
2018-Feb-12 07:59N 47°38' W 122°23'0 0.0
2018-Feb-12 07:30N 47°38' W 122°23'3 6.9
2018-Feb-12 07:00N 47°35' W 122°21'0 0.0
2018-Feb-12 06:28N 47°35' W 122°21'0 0.0
2018-Feb-12 06:00N 47°35' W 122°21'0 0.0
2018-Feb-12 05:30N 47°35' W 122°21'1 1.2
2018-Feb-12 05:00N 47°35' W 122°21'0 0.5
2018-Feb-12 04:30N 47°36' W 122°21'1 1.8
2018-Feb-12 04:00N 47°36' W 122°22'1 1.5
2018-Feb-12 03:30N 47°36' W 122°21'0 0.7
2018-Feb-12 02:51N 47°35' W 122°21'0 0.5
2018-Feb-12 02:26N 47°36' W 122°21'0 0.1
2018-Feb-12 01:59N 47°36' W 122°21'0 0.2
2018-Feb-12 01:28N 47°35' W 122°21'0 0.5
2018-Feb-12 00:48N 47°35' W 122°21'0 1.7
2018-Feb-12 00:30N 47°36' W 122°21'3 5.1
2018-Feb-11 23:58N 47°38' W 122°23'0 0.0
2018-Feb-11 23:30N 47°38' W 122°23'0 0.0
2018-Feb-11 23:00N 47°38' W 122°23'0 0.0
2018-Feb-11 22:30N 47°38' W 122°23'0 0.0
2018-Feb-11 22:00N 47°38' W 122°23'0 0.0
2018-Feb-11 21:30N 47°38' W 122°23'0 0.0
2018-Feb-11 21:00N 47°38' W 122°23'0 0.0
2018-Feb-11 20:30N 47°38' W 122°23'0 0.0
2018-Feb-11 20:00N 47°38' W 122°23'0 0.0
2018-Feb-11 19:30N 47°38' W 122°23'0 0.0
2018-Feb-11 19:00N 47°38' W 122°23'2 4.2
2018-Feb-11 18:30N 47°36' W 122°24'611.1
2018-Feb-11 18:00N 47°30' W 122°25'612.1
2018-Feb-11 17:29N 47°24' W 122°22'7 1.6
2018-Feb-11 12:54N 47°18' W 122°27'5 9.5
2018-Feb-11 12:23N 47°22' W 122°23'3 9.2
2018-Feb-11 12:00N 47°26' W 122°23'611.6
2018-Feb-11 11:30N 47°31' W 122°25'510.5
2018-Feb-11 11:00N 47°37' W 122°24'1 2.8
2018-Feb-11 10:30N 47°38' W 122°23'0 0.0
2018-Feb-11 10:00N 47°38' W 122°23'0 0.0
2018-Feb-11 09:30N 47°38' W 122°23'0 0.0
2018-Feb-11 08:58N 47°38' W 122°23'0 0.0
2018-Feb-11 08:29N 47°38' W 122°23'0 0.0
2018-Feb-11 08:00N 47°38' W 122°23'0 0.0
2018-Feb-11 07:30N 47°38' W 122°23'0 0.0
2018-Feb-11 06:59N 47°38' W 122°23'0 0.0
2018-Feb-11 06:30N 47°38' W 122°23'0 0.0
2018-Feb-11 05:58N 47°38' W 122°23'0 0.0
2018-Feb-11 05:30N 47°38' W 122°23'0 0.0
2018-Feb-11 05:00N 47°38' W 122°23'0 0.0
2018-Feb-11 04:30N 47°38' W 122°23'0 0.0
2018-Feb-11 04:00N 47°38' W 122°23'0 0.0
2018-Feb-11 03:29N 47°38' W 122°23'0 0.0
2018-Feb-11 03:00N 47°38' W 122°23'0 0.0
2018-Feb-11 02:30N 47°38' W 122°23'0 0.0
2018-Feb-11 01:59N 47°38' W 122°23'0 0.0
2018-Feb-11 01:30N 47°38' W 122°23'0 0.0
2018-Feb-11 01:00N 47°38' W 122°23'0 0.0
2018-Feb-11 00:30N 47°38' W 122°23'0 0.0
2018-Feb-10 23:59N 47°38' W 122°23'0 0.0
2018-Feb-10 23:28N 47°38' W 122°23'0 0.0
2018-Feb-10 23:00N 47°38' W 122°23'0 0.0
2018-Feb-10 22:30N 47°38' W 122°23'0 0.0
2018-Feb-10 22:00N 47°38' W 122°23'0 0.0
2018-Feb-10 21:30N 47°38' W 122°23'0 0.0
2018-Feb-10 21:00N 47°38' W 122°23'0 0.0
2018-Feb-10 20:30N 47°38' W 122°23'0 0.9
2018-Feb-10 20:00N 47°37' W 122°23'  

Dump ship's entire track history